sensor_id;sensor_type;location;lat;lon;timestamp;pressure;altitude;pressure_sealevel;temperature;humidity
70559;BME280;58108;48.094;11.838;2024-02-21T00:01:42;96343.09;;;1.94;100.00
70559;BME280;58108;48.094;11.838;2024-02-21T00:04:07;96345.13;;;2.13;100.00
70559;BME280;58108;48.094;11.838;2024-02-21T00:06:33;96347.16;;;2.03;100.00
70559;BME280;58108;48.094;11.838;2024-02-21T00:08:58;96342.00;;;2.03;100.00
70559;BME280;58108;48.094;11.838;2024-02-21T00:11:24;96341.91;;;2.06;100.00
70559;BME280;58108;48.094;11.838;2024-02-21T00:13:50;96340.47;;;2.24;100.00
70559;BME280;58108;48.094;11.838;2024-02-21T00:16:18;96337.09;;;2.22;100.00
70559;BME280;58108;48.094;11.838;2024-02-21T00:18:44;96333.63;;;2.23;100.00
70559;BME280;58108;48.094;11.838;2024-02-21T00:21:09;96332.81;;;2.21;100.00
70559;BME280;58108;48.094;11.838;2024-02-21T00:23:40;96327.66;;;2.21;100.00
70559;BME280;58108;48.094;11.838;2024-02-21T00:26:06;96323.72;;;2.09;100.00
70559;BME280;58108;48.094;11.838;2024-02-21T00:28:33;96331.50;;;2.08;100.00
70559;BME280;58108;48.094;11.838;2024-02-21T00:30:58;96319.88;;;2.23;100.00
70559;BME280;58108;48.094;11.838;2024-02-21T00:33:24;96321.63;;;2.21;100.00
70559;BME280;58108;48.094;11.838;2024-02-21T00:35:49;96324.88;;;2.27;100.00
70559;BME280;58108;48.094;11.838;2024-02-21T00:38:15;96325.72;;;2.28;100.00
70559;BME280;58108;48.094;11.838;2024-02-21T00:40:41;96322.59;;;2.18;100.00
70559;BME280;58108;48.094;11.838;2024-02-21T00:43:07;96320.19;;;2.12;100.00
70559;BME280;58108;48.094;11.838;2024-02-21T00:45:33;96318.44;;;2.12;100.00
70559;BME280;58108;48.094;11.838;2024-02-21T00:47:58;96312.56;;;2.36;100.00
70559;BME280;58108;48.094;11.838;2024-02-21T00:50:24;96304.28;;;2.24;100.00
70559;BME280;58108;48.094;11.838;2024-02-21T00:52:49;96304.09;;;2.30;100.00
70559;BME280;58108;48.094;11.838;2024-02-21T00:55:15;96299.03;;;2.27;100.00
70559;BME280;58108;48.094;11.838;2024-02-21T00:57:40;96299.69;;;2.34;100.00
70559;BME280;58108;48.094;11.838;2024-02-21T01:00:06;96305.00;;;2.29;100.00
70559;BME280;58108;48.094;11.838;2024-02-21T01:02:33;96301.25;;;2.11;100.00
70559;BME280;58108;48.094;11.838;2024-02-21T01:04:59;96299.75;;;2.04;100.00
70559;BME280;58108;48.094;11.838;2024-02-21T01:07:24;96303.00;;;2.11;100.00
70559;BME280;58108;48.094;11.838;2024-02-21T01:09:50;96302.03;;;2.13;100.00
70559;BME280;58108;48.094;11.838;2024-02-21T01:12:16;96298.53;;;2.16;100.00
70559;BME280;58108;48.094;11.838;2024-02-21T01:14:42;96306.00;;;2.25;100.00
70559;BME280;58108;48.094;11.838;2024-02-21T01:17:08;96303.00;;;2.11;100.00
70559;BME280;58108;48.094;11.838;2024-02-21T01:19:33;96303.84;;;2.11;100.00
70559;BME280;58108;48.094;11.838;2024-02-21T01:21:59;96300.13;;;2.20;100.00
70559;BME280;58108;48.094;11.838;2024-02-21T01:24:25;96298.63;;;2.13;100.00
70559;BME280;58108;48.094;11.838;2024-02-21T01:26:50;96291.53;;;2.19;100.00
70559;BME280;58108;48.094;11.838;2024-02-21T01:29:16;96287.22;;;2.20;100.00
70559;BME280;58108;48.094;11.838;2024-02-21T01:31:41;96283.84;;;2.18;100.00
70559;BME280;58108;48.094;11.838;2024-02-21T01:34:07;96271.31;;;2.32;100.00
70559;BME280;58108;48.094;11.838;2024-02-21T01:36:33;96273.84;;;2.34;100.00
70559;BME280;58108;48.094;11.838;2024-02-21T01:38:59;96270.50;;;2.30;100.00
70559;BME280;58108;48.094;11.838;2024-02-21T01:41:25;96260.50;;;2.19;100.00
70559;BME280;58108;48.094;11.838;2024-02-21T01:43:51;96261.22;;;2.25;100.00
70559;BME280;58108;48.094;11.838;2024-02-21T01:46:16;96259.97;;;2.37;100.00
70559;BME280;58108;48.094;11.838;2024-02-21T01:48:42;96260.38;;;2.24;100.00
70559;BME280;58108;48.094;11.838;2024-02-21T01:51:08;96257.25;;;2.14;100.00
70559;BME280;58108;48.094;11.838;2024-02-21T01:53:43;96256.22;;;2.20;100.00
70559;BME280;58108;48.094;11.838;2024-02-21T01:56:10;96250.38;;;2.13;100.00
70559;BME280;58108;48.094;11.838;2024-02-21T01:58:37;96245.56;;;2.29;100.00
70559;BME280;58108;48.094;11.838;2024-02-21T02:01:04;96241.91;;;2.35;100.00
70559;BME280;58108;48.094;11.838;2024-02-21T02:03:29;96245.13;;;2.16;100.00
70559;BME280;58108;48.094;11.838;2024-02-21T02:05:55;96241.94;;;2.08;100.00
70559;BME280;58108;48.094;11.838;2024-02-21T02:08:21;96238.28;;;2.15;100.00
70559;BME280;58108;48.094;11.838;2024-02-21T02:10:49;96236.16;;;2.27;100.00
70559;BME280;58108;48.094;11.838;2024-02-21T02:13:15;96227.91;;;2.42;100.00
70559;BME280;58108;48.094;11.838;2024-02-21T02:15:45;96234.47;;;2.26;100.00
70559;BME280;58108;48.094;11.838;2024-02-21T02:18:12;96227.75;;;2.22;100.00
70559;BME280;58108;48.094;11.838;2024-02-21T02:20:38;96228.25;;;2.31;100.00
70559;BME280;58108;48.094;11.838;2024-02-21T02:25:32;96225.78;;;2.28;100.00
70559;BME280;58108;48.094;11.838;2024-02-21T02:27:58;96221.38;;;2.32;100.00
70559;BME280;58108;48.094;11.838;2024-02-21T02:30:24;96209.34;;;2.31;100.00
70559;BME280;58108;48.094;11.838;2024-02-21T02:32:49;96209.31;;;2.32;100.00
70559;BME280;58108;48.094;11.838;2024-02-21T02:35:15;96204.50;;;2.22;100.00
70559;BME280;58108;48.094;11.838;2024-02-21T02:37:47;96201.44;;;2.36;100.00
70559;BME280;58108;48.094;11.838;2024-02-21T02:40:14;96195.94;;;2.45;100.00
70559;BME280;58108;48.094;11.838;2024-02-21T02:42:39;96192.41;;;2.48;100.00
70559;BME280;58108;48.094;11.838;2024-02-21T02:45:05;96195.56;;;2.56;100.00
70559;BME280;58108;48.094;11.838;2024-02-21T02:47:31;96187.63;;;2.60;100.00
70559;BME280;58108;48.094;11.838;2024-02-21T02:49:57;96185.34;;;2.53;100.00
70559;BME280;58108;48.094;11.838;2024-02-21T02:52:22;96186.91;;;2.57;99.78
70559;BME280;58108;48.094;11.838;2024-02-21T02:54:47;96178.53;;;2.50;100.00
70559;BME280;58108;48.094;11.838;2024-02-21T02:57:17;96175.91;;;2.52;99.84
70559;BME280;58108;48.094;11.838;2024-02-21T02:59:48;96175.09;;;2.50;100.00
70559;BME280;58108;48.094;11.838;2024-02-21T03:02:13;96164.75;;;2.50;99.48
70559;BME280;58108;48.094;11.838;2024-02-21T03:04:42;96168.94;;;2.54;99.78
70559;BME280;58108;48.094;11.838;2024-02-21T03:07:07;96170.81;;;2.49;99.98
70559;BME280;58108;48.094;11.838;2024-02-21T03:09:33;96162.28;;;2.46;100.00
70559;BME280;58108;48.094;11.838;2024-02-21T03:11:59;96157.28;;;2.42;100.00
70559;BME280;58108;48.094;11.838;2024-02-21T03:14:28;96163.81;;;2.52;100.00
70559;BME280;58108;48.094;11.838;2024-02-21T03:16:54;96168.16;;;2.52;100.00
70559;BME280;58108;48.094;11.838;2024-02-21T03:19:20;96163.63;;;2.57;99.69
70559;BME280;58108;48.094;11.838;2024-02-21T03:21:45;96167.78;;;2.63;99.59
70559;BME280;58108;48.094;11.838;2024-02-21T03:24:11;96165.56;;;2.76;97.99
70559;BME280;58108;48.094;11.838;2024-02-21T03:26:36;96155.44;;;2.69;98.42
70559;BME280;58108;48.094;11.838;2024-02-21T03:29:03;96152.00;;;2.69;99.23
70559;BME280;58108;48.094;11.838;2024-02-21T03:31:29;96154.53;;;2.70;99.94
70559;BME280;58108;48.094;11.838;2024-02-21T03:33:54;96157.91;;;2.72;98.43
70559;BME280;58108;48.094;11.838;2024-02-21T03:36:20;96166.75;;;2.67;99.80
70559;BME280;58108;48.094;11.838;2024-02-21T03:38:45;96168.97;;;2.52;100.00
70559;BME280;58108;48.094;11.838;2024-02-21T03:41:11;96168.94;;;2.54;100.00
70559;BME280;58108;48.094;11.838;2024-02-21T03:43:38;96165.28;;;2.59;100.00
70559;BME280;58108;48.094;11.838;2024-02-21T03:46:04;96166.47;;;2.75;99.59
70559;BME280;58108;48.094;11.838;2024-02-21T03:48:30;96166.78;;;2.65;99.78
70559;BME280;58108;48.094;11.838;2024-02-21T03:50:55;96153.19;;;2.60;100.00
70559;BME280;58108;48.094;11.838;2024-02-21T03:53:21;96160.00;;;2.63;99.94
70559;BME280;58108;48.094;11.838;2024-02-21T03:55:46;96162.63;;;2.61;100.00
70559;BME280;58108;48.094;11.838;2024-02-21T03:58:12;96160.06;;;2.61;100.00
70559;BME280;58108;48.094;11.838;2024-02-21T04:00:37;96160.75;;;2.66;99.52
70559;BME280;58108;48.094;11.838;2024-02-21T04:03:04;96150.88;;;2.76;98.16
70559;BME280;58108;48.094;11.838;2024-02-21T04:05:30;96153.72;;;2.70;98.93
70559;BME280;58108;48.094;11.838;2024-02-21T04:07:55;96150.44;;;2.65;99.21
70559;BME280;58108;48.094;11.838;2024-02-21T04:10:21;96150.09;;;2.50;100.00
70559;BME280;58108;48.094;11.838;2024-02-21T04:12:46;96148.59;;;2.68;98.85
70559;BME280;58108;48.094;11.838;2024-02-21T04:15:12;96150.16;;;2.72;99.20
70559;BME280;58108;48.094;11.838;2024-02-21T04:17:37;96149.41;;;2.69;99.94
70559;BME280;58108;48.094;11.838;2024-02-21T04:20:04;96143.50;;;2.65;99.81
70559;BME280;58108;48.094;11.838;2024-02-21T04:22:31;96136.09;;;2.56;100.00
70559;BME280;58108;48.094;11.838;2024-02-21T04:24:59;96140.44;;;2.55;100.00
70559;BME280;58108;48.094;11.838;2024-02-21T04:27:25;96142.47;;;2.47;100.00
70559;BME280;58108;48.094;11.838;2024-02-21T04:29:52;96138.63;;;2.57;100.00
70559;BME280;58108;48.094;11.838;2024-02-21T04:32:17;96133.69;;;2.51;100.00
70559;BME280;58108;48.094;11.838;2024-02-21T04:34:43;96132.91;;;2.49;100.00
70559;BME280;58108;48.094;11.838;2024-02-21T04:37:08;96124.28;;;2.49;100.00
70559;BME280;58108;48.094;11.838;2024-02-21T04:39:34;96122.34;;;2.55;100.00
70559;BME280;58108;48.094;11.838;2024-02-21T04:41:59;96117.78;;;2.38;100.00
70559;BME280;58108;48.094;11.838;2024-02-21T04:44:25;96120.53;;;2.34;100.00
70559;BME280;58108;48.094;11.838;2024-02-21T04:46:50;96122.44;;;2.52;100.00
70559;BME280;58108;48.094;11.838;2024-02-21T04:49:16;96121.63;;;2.52;100.00
70559;BME280;58108;48.094;11.838;2024-02-21T04:51:42;96109.72;;;2.46;100.00
70559;BME280;58108;48.094;11.838;2024-02-21T04:54:07;96108.19;;;2.42;100.00
70559;BME280;58108;48.094;11.838;2024-02-21T04:56:34;96097.78;;;2.43;100.00
70559;BME280;58108;48.094;11.838;2024-02-21T04:58:59;96101.41;;;2.38;100.00
70559;BME280;58108;48.094;11.838;2024-02-21T05:01:25;96098.06;;;2.36;100.00
70559;BME280;58108;48.094;11.838;2024-02-21T05:03:51;96098.91;;;2.36;100.00
70559;BME280;58108;48.094;11.838;2024-02-21T05:06:16;96098.38;;;2.26;100.00
70559;BME280;58108;48.094;11.838;2024-02-21T05:08:42;96092.94;;;2.09;100.00
70559;BME280;58108;48.094;11.838;2024-02-21T05:11:07;96086.97;;;2.08;100.00
70559;BME280;58108;48.094;11.838;2024-02-21T05:13:33;96079.25;;;2.07;100.00
70559;BME280;58108;48.094;11.838;2024-02-21T05:15:58;96078.44;;;1.81;100.00
70559;BME280;58108;48.094;11.838;2024-02-21T05:18:27;96066.19;;;1.86;100.00
70559;BME280;58108;48.094;11.838;2024-02-21T05:20:53;96061.66;;;1.67;100.00
70559;BME280;58108;48.094;11.838;2024-02-21T05:23:19;96068.13;;;1.54;100.00
70559;BME280;58108;48.094;11.838;2024-02-21T05:25:44;96063.63;;;1.33;100.00
70559;BME280;58108;48.094;11.838;2024-02-21T05:28:10;96049.28;;;1.52;100.00
70559;BME280;58108;48.094;11.838;2024-02-21T05:30:36;96050.59;;;1.36;100.00
70559;BME280;58108;48.094;11.838;2024-02-21T05:33:05;96039.22;;;1.42;100.00
70559;BME280;58108;48.094;11.838;2024-02-21T05:35:31;96041.25;;;1.59;100.00
70559;BME280;58108;48.094;11.838;2024-02-21T05:37:56;96045.84;;;1.51;100.00
70559;BME280;58108;48.094;11.838;2024-02-21T05:40:22;96038.75;;;1.58;100.00
70559;BME280;58108;48.094;11.838;2024-02-21T05:42:48;96042.34;;;1.52;100.00
70559;BME280;58108;48.094;11.838;2024-02-21T05:45:14;96044.66;;;1.34;100.00
70559;BME280;58108;48.094;11.838;2024-02-21T05:47:41;96037.38;;;1.46;100.00
70559;BME280;58108;48.094;11.838;2024-02-21T05:50:07;96036.16;;;1.58;100.00
70559;BME280;58108;48.094;11.838;2024-02-21T05:52:32;96033.63;;;1.56;100.00
70559;BME280;58108;48.094;11.838;2024-02-21T05:54:58;96028.50;;;1.55;100.00
70559;BME280;58108;48.094;11.838;2024-02-21T05:57:23;96026.56;;;1.61;100.00
70559;BME280;58108;48.094;11.838;2024-02-21T05:59:49;96017.59;;;1.46;100.00
70559;BME280;58108;48.094;11.838;2024-02-21T06:02:15;96009.00;;;1.46;100.00
70559;BME280;58108;48.094;11.838;2024-02-21T06:04:41;96016.47;;;1.55;100.00
70559;BME280;58108;48.094;11.838;2024-02-21T06:07:08;96011.47;;;1.50;100.00
70559;BME280;58108;48.094;11.838;2024-02-21T06:09:34;96012.69;;;1.64;100.00
70559;BME280;58108;48.094;11.838;2024-02-21T06:11:59;96009.69;;;1.51;100.00
70559;BME280;58108;48.094;11.838;2024-02-21T06:14:25;96004.16;;;1.36;100.00
70559;BME280;58108;48.094;11.838;2024-02-21T06:16:50;96007.53;;;1.64;100.00
70559;BME280;58108;48.094;11.838;2024-02-21T06:19:16;96011.88;;;1.89;100.00
70559;BME280;58108;48.094;11.838;2024-02-21T06:21:42;96004.00;;;1.92;100.00
70559;BME280;58108;48.094;11.838;2024-02-21T06:24:08;96007.59;;;1.88;100.00
70559;BME280;58108;48.094;11.838;2024-02-21T06:26:33;96004.72;;;1.96;100.00
70559;BME280;58108;48.094;11.838;2024-02-21T06:28:59;96005.69;;;1.93;100.00
70559;BME280;58108;48.094;11.838;2024-02-21T06:31:26;96010.09;;;1.89;100.00
70559;BME280;58108;48.094;11.838;2024-02-21T06:33:52;96012.63;;;1.91;100.00
70559;BME280;58108;48.094;11.838;2024-02-21T06:36:18;96010.44;;;1.80;100.00
70559;BME280;58108;48.094;11.838;2024-02-21T06:38:43;96003.81;;;1.73;100.00
70559;BME280;58108;48.094;11.838;2024-02-21T06:41:16;96011.91;;;1.62;100.00
70559;BME280;58108;48.094;11.838;2024-02-21T06:43:42;96007.41;;;1.69;100.00
70559;BME280;58108;48.094;11.838;2024-02-21T06:46:07;95998.84;;;1.67;100.00
70559;BME280;58108;48.094;11.838;2024-02-21T06:48:33;95993.13;;;1.58;100.00
70559;BME280;58108;48.094;11.838;2024-02-21T06:50:58;96001.00;;;1.54;100.00
70559;BME280;58108;48.094;11.838;2024-02-21T06:53:24;96003.59;;;1.54;100.00
70559;BME280;58108;48.094;11.838;2024-02-21T06:55:49;96007.09;;;2.02;100.00
70559;BME280;58108;48.094;11.838;2024-02-21T06:58:15;96014.50;;;2.11;100.00
70559;BME280;58108;48.094;11.838;2024-02-21T07:00:42;96015.28;;;2.13;100.00
70559;BME280;58108;48.094;11.838;2024-02-21T07:03:08;96008.41;;;2.60;100.00
70559;BME280;58108;48.094;11.838;2024-02-21T07:05:34;95999.84;;;2.82;100.00
70559;BME280;58108;48.094;11.838;2024-02-21T07:07:59;95998.44;;;2.73;100.00
70559;BME280;58108;48.094;11.838;2024-02-21T07:10:25;95996.22;;;2.86;100.00
70559;BME280;58108;48.094;11.838;2024-02-21T07:12:50;95991.47;;;2.97;100.00
70559;BME280;58108;48.094;11.838;2024-02-21T07:15:18;95988.97;;;2.94;100.00
70559;BME280;58108;48.094;11.838;2024-02-21T07:17:43;95990.66;;;3.18;97.62
70559;BME280;58108;48.094;11.838;2024-02-21T07:20:09;95990.03;;;3.33;96.08
70559;BME280;58108;48.094;11.838;2024-02-21T07:22:35;95988.84;;;3.20;96.24
70559;BME280;58108;48.094;11.838;2024-02-21T07:25:01;95992.38;;;3.17;96.92
70559;BME280;58108;48.094;11.838;2024-02-21T07:27:26;95989.59;;;3.22;97.22
70559;BME280;58108;48.094;11.838;2024-02-21T07:29:56;95984.84;;;3.33;95.56
70559;BME280;58108;48.094;11.838;2024-02-21T07:32:22;95992.66;;;3.32;95.38
70559;BME280;58108;48.094;11.838;2024-02-21T07:34:48;95996.63;;;3.40;94.14
70559;BME280;58108;48.094;11.838;2024-02-21T07:37:13;96000.50;;;3.51;95.56
70559;BME280;58108;48.094;11.838;2024-02-21T07:39:39;95996.38;;;3.67;94.83
70559;BME280;58108;48.094;11.838;2024-02-21T07:42:04;95993.00;;;3.65;96.23
70559;BME280;58108;48.094;11.838;2024-02-21T07:44:31;95989.03;;;3.77;95.05
70559;BME280;58108;48.094;11.838;2024-02-21T07:46:58;95981.22;;;3.98;92.89
70559;BME280;58108;48.094;11.838;2024-02-21T07:49:24;95975.72;;;4.06;91.29
70559;BME280;58108;48.094;11.838;2024-02-21T07:51:50;95964.66;;;4.02;91.47
70559;BME280;58108;48.094;11.838;2024-02-21T07:54:15;95967.47;;;3.97;92.71
70559;BME280;58108;48.094;11.838;2024-02-21T07:56:41;95959.81;;;3.94;92.21
70559;BME280;58108;48.094;11.838;2024-02-21T07:59:07;95970.75;;;4.01;92.00
70559;BME280;58108;48.094;11.838;2024-02-21T08:01:33;95963.25;;;3.95;92.56
70559;BME280;58108;48.094;11.838;2024-02-21T08:03:58;95954.13;;;4.05;93.50
70559;BME280;58108;48.094;11.838;2024-02-21T08:06:24;95941.66;;;4.33;91.93
70559;BME280;58108;48.094;11.838;2024-02-21T08:08:50;95944.41;;;4.49;92.80
70559;BME280;58108;48.094;11.838;2024-02-21T08:11:16;95934.25;;;4.44;91.56
70559;BME280;58108;48.094;11.838;2024-02-21T08:13:41;95924.88;;;4.59;90.41
70559;BME280;58108;48.094;11.838;2024-02-21T08:16:07;95913.13;;;4.52;89.78
70559;BME280;58108;48.094;11.838;2024-02-21T08:18:32;95898.59;;;4.49;91.46
70559;BME280;58108;48.094;11.838;2024-02-21T08:21:03;95901.53;;;4.42;88.94
70559;BME280;58108;48.094;11.838;2024-02-21T08:23:28;95887.22;;;4.33;91.16
70559;BME280;58108;48.094;11.838;2024-02-21T08:25:54;95890.91;;;4.29;91.58
70559;BME280;58108;48.094;11.838;2024-02-21T08:28:20;95886.25;;;4.35;90.08
70559;BME280;58108;48.094;11.838;2024-02-21T08:30:45;95881.41;;;4.47;90.34
70559;BME280;58108;48.094;11.838;2024-02-21T08:33:15;95877.44;;;4.57;89.08
70559;BME280;58108;48.094;11.838;2024-02-21T08:35:42;95873.81;;;4.61;88.15
70559;BME280;58108;48.094;11.838;2024-02-21T08:38:07;95870.47;;;4.77;90.39
70559;BME280;58108;48.094;11.838;2024-02-21T08:40:33;95880.22;;;4.89;88.10
70559;BME280;58108;48.094;11.838;2024-02-21T08:43:00;95877.72;;;4.88;86.30
70559;BME280;58108;48.094;11.838;2024-02-21T08:45:26;95880.78;;;4.96;85.31
70559;BME280;58108;48.094;11.838;2024-02-21T08:47:52;95876.97;;;5.03;85.43
70559;BME280;58108;48.094;11.838;2024-02-21T08:50:17;95874.81;;;5.12;86.44
70559;BME280;58108;48.094;11.838;2024-02-21T08:52:43;95878.59;;;5.22;86.18
70559;BME280;58108;48.094;11.838;2024-02-21T08:55:09;95884.69;;;5.39;85.90
70559;BME280;58108;48.094;11.838;2024-02-21T08:57:34;95883.44;;;5.64;85.77
70559;BME280;58108;48.094;11.838;2024-02-21T09:00:05;95885.28;;;5.61;82.48
70559;BME280;58108;48.094;11.838;2024-02-21T09:02:37;95882.94;;;5.73;82.67
70559;BME280;58108;48.094;11.838;2024-02-21T09:05:03;95884.72;;;5.88;84.41
70559;BME280;58108;48.094;11.838;2024-02-21T09:07:30;95877.91;;;6.04;79.28
70559;BME280;58108;48.094;11.838;2024-02-21T09:09:56;95887.47;;;6.19;79.01
70559;BME280;58108;48.094;11.838;2024-02-21T09:12:21;95880.59;;;6.18;75.44
70559;BME280;58108;48.094;11.838;2024-02-21T09:14:47;95877.41;;;6.29;75.59
70559;BME280;58108;48.094;11.838;2024-02-21T09:17:16;95878.38;;;6.59;72.54
70559;BME280;58108;48.094;11.838;2024-02-21T09:19:43;95880.91;;;6.60;73.71
70559;BME280;58108;48.094;11.838;2024-02-21T09:22:09;95886.66;;;6.81;69.24
70559;BME280;58108;48.094;11.838;2024-02-21T09:24:34;95890.25;;;6.95;66.80
70559;BME280;58108;48.094;11.838;2024-02-21T09:27:00;95892.25;;;6.90;65.13
70559;BME280;58108;48.094;11.838;2024-02-21T09:29:26;95888.78;;;7.05;64.18
70559;BME280;58108;48.094;11.838;2024-02-21T09:31:51;95888.88;;;7.18;63.90
70559;BME280;58108;48.094;11.838;2024-02-21T09:34:17;95894.75;;;7.22;61.44
70559;BME280;58108;48.094;11.838;2024-02-21T09:36:43;95893.47;;;7.29;62.24
70559;BME280;58108;48.094;11.838;2024-02-21T09:39:10;95885.78;;;7.28;60.67
70559;BME280;58108;48.094;11.838;2024-02-21T09:41:45;95880.00;;;7.37;60.12
70559;BME280;58108;48.094;11.838;2024-02-21T09:44:13;95874.22;;;7.32;59.02
70559;BME280;58108;48.094;11.838;2024-02-21T09:46:52;95878.16;;;7.53;60.71
70559;BME280;58108;48.094;11.838;2024-02-21T09:49:30;95873.50;;;7.59;60.29
70559;BME280;58108;48.094;11.838;2024-02-21T09:52:03;95877.78;;;7.74;60.05
70559;BME280;58108;48.094;11.838;2024-02-21T09:54:30;95883.28;;;7.84;56.99
70559;BME280;58108;48.094;11.838;2024-02-21T09:57:02;95866.75;;;8.13;58.14
70559;BME280;58108;48.094;11.838;2024-02-21T09:59:30;95865.81;;;8.14;55.32
70559;BME280;58108;48.094;11.838;2024-02-21T10:01:56;95866.31;;;8.20;55.75
70559;BME280;58108;48.094;11.838;2024-02-21T10:04:23;95868.25;;;8.17;54.45
70559;BME280;58108;48.094;11.838;2024-02-21T10:06:49;95865.09;;;8.12;53.98
70559;BME280;58108;48.094;11.838;2024-02-21T10:09:25;95867.09;;;8.35;56.08
70559;BME280;58108;48.094;11.838;2024-02-21T10:11:53;95864.38;;;8.37;55.14
70559;BME280;58108;48.094;11.838;2024-02-21T10:14:19;95857.00;;;8.44;54.04
70559;BME280;58108;48.094;11.838;2024-02-21T10:16:47;95861.59;;;8.68;53.53
70559;BME280;58108;48.094;11.838;2024-02-21T10:19:20;95854.25;;;8.87;52.09
70559;BME280;58108;48.094;11.838;2024-02-21T10:22:05;95850.84;;;9.13;51.99
70559;BME280;58108;48.094;11.838;2024-02-21T10:24:34;95848.09;;;9.01;51.33
70559;BME280;58108;48.094;11.838;2024-02-21T10:27:05;95835.91;;;9.15;51.02
70559;BME280;58108;48.094;11.838;2024-02-21T10:29:43;95840.81;;;9.07;50.01
70559;BME280;58108;48.094;11.838;2024-02-21T10:32:14;95841.44;;;9.10;50.92
70559;BME280;58108;48.094;11.838;2024-02-21T10:34:42;95830.16;;;9.10;50.79
70559;BME280;58108;48.094;11.838;2024-02-21T10:37:09;95839.91;;;9.21;49.81
70559;BME280;58108;48.094;11.838;2024-02-21T10:39:40;95841.53;;;9.09;50.09
70559;BME280;58108;48.094;11.838;2024-02-21T10:42:06;95838.09;;;9.08;49.95
70559;BME280;58108;48.094;11.838;2024-02-21T10:44:37;95839.56;;;9.38;49.32
70559;BME280;58108;48.094;11.838;2024-02-21T10:47:10;95837.34;;;9.58;49.21
70559;BME280;58108;48.094;11.838;2024-02-21T10:49:41;95824.31;;;9.95;49.63
70559;BME280;58108;48.094;11.838;2024-02-21T10:57:13;95798.84;;;10.48;48.76
70559;BME280;58108;48.094;11.838;2024-02-21T10:59:44;95785.41;;;10.77;47.10
70559;BME280;58108;48.094;11.838;2024-02-21T11:02:10;95774.25;;;10.62;48.18
70559;BME280;58108;48.094;11.838;2024-02-21T11:04:36;95779.84;;;10.57;44.84
70559;BME280;58108;48.094;11.838;2024-02-21T11:07:03;95768.53;;;10.32;43.77
70559;BME280;58108;48.094;11.838;2024-02-21T11:09:31;95752.16;;;10.42;41.30
70559;BME280;58108;48.094;11.838;2024-02-21T11:11:57;95751.78;;;10.35;43.38
70559;BME280;58108;48.094;11.838;2024-02-21T11:14:27;95747.16;;;10.63;43.37
70559;BME280;58108;48.094;11.838;2024-02-21T11:16:53;95739.84;;;11.02;43.96
70559;BME280;58108;48.094;11.838;2024-02-21T11:19:26;95736.09;;;10.71;42.73
70559;BME280;58108;48.094;11.838;2024-02-21T11:21:54;95727.31;;;10.83;42.66
70559;BME280;58108;48.094;11.838;2024-02-21T11:24:38;95725.31;;;11.21;41.35
70559;BME280;58108;48.094;11.838;2024-02-21T11:27:19;95714.06;;;11.87;41.08
70559;BME280;58108;48.094;11.838;2024-02-21T11:29:54;95712.28;;;12.32;41.25
70559;BME280;58108;48.094;11.838;2024-02-21T11:32:20;95698.75;;;13.01;41.08
70559;BME280;58108;48.094;11.838;2024-02-21T11:35:02;95687.56;;;13.71;38.33
70559;BME280;58108;48.094;11.838;2024-02-21T11:37:33;95683.72;;;14.04;37.71
70559;BME280;58108;48.094;11.838;2024-02-21T11:39:59;95684.16;;;14.10;34.44
70559;BME280;58108;48.094;11.838;2024-02-21T11:42:26;95679.88;;;13.48;34.99
70559;BME280;58108;48.094;11.838;2024-02-21T11:44:53;95676.34;;;13.88;34.33
70559;BME280;58108;48.094;11.838;2024-02-21T11:47:19;95668.34;;;14.29;35.28
70559;BME280;58108;48.094;11.838;2024-02-21T11:49:45;95679.00;;;14.67;34.01
70559;BME280;58108;48.094;11.838;2024-02-21T11:52:12;95667.06;;;14.83;33.36
70559;BME280;58108;48.094;11.838;2024-02-21T11:54:41;95651.88;;;14.07;33.41
70559;BME280;58108;48.094;11.838;2024-02-21T11:57:06;95647.06;;;14.70;35.28
70559;BME280;58108;48.094;11.838;2024-02-21T11:59:33;95640.69;;;14.93;32.52
70559;BME280;58108;48.094;11.838;2024-02-21T12:02:00;95643.75;;;14.78;31.98
70559;BME280;58108;48.094;11.838;2024-02-21T12:04:26;95642.44;;;14.05;33.64
70559;BME280;58108;48.094;11.838;2024-02-21T12:06:54;95642.72;;;14.41;32.72
70559;BME280;58108;48.094;11.838;2024-02-21T12:09:22;95628.16;;;14.37;32.88
70559;BME280;58108;48.094;11.838;2024-02-21T12:11:57;95625.63;;;13.57;32.65
70559;BME280;58108;48.094;11.838;2024-02-21T12:14:24;95617.19;;;13.83;34.21
70559;BME280;58108;48.094;11.838;2024-02-21T12:16:50;95617.47;;;14.39;30.93
70559;BME280;58108;48.094;11.838;2024-02-21T12:19:16;95609.88;;;15.21;33.22
70559;BME280;58108;48.094;11.838;2024-02-21T12:21:42;95610.84;;;15.94;30.04
70559;BME280;58108;48.094;11.838;2024-02-21T12:24:15;95601.38;;;15.74;29.87
70559;BME280;58108;48.094;11.838;2024-02-21T12:26:41;95601.56;;;15.44;30.35
70559;BME280;58108;48.094;11.838;2024-02-21T12:29:07;95592.56;;;15.37;31.44
70559;BME280;58108;48.094;11.838;2024-02-21T12:31:39;95602.44;;;15.81;31.61
70559;BME280;58108;48.094;11.838;2024-02-21T12:34:05;95584.44;;;15.94;29.76
70559;BME280;58108;48.094;11.838;2024-02-21T12:36:32;95585.66;;;16.45;30.54
70559;BME280;58108;48.094;11.838;2024-02-21T12:38:58;95574.16;;;16.89;28.18
70559;BME280;58108;48.094;11.838;2024-02-21T12:41:24;95572.53;;;16.35;30.51
70559;BME280;58108;48.094;11.838;2024-02-21T12:43:52;95569.47;;;16.48;30.33
70559;BME280;58108;48.094;11.838;2024-02-21T12:46:18;95562.09;;;18.22;27.72
70559;BME280;58108;48.094;11.838;2024-02-21T12:48:43;95558.69;;;17.54;28.27
70559;BME280;58108;48.094;11.838;2024-02-21T12:51:09;95544.97;;;17.58;29.29
70559;BME280;58108;48.094;11.838;2024-02-21T12:53:35;95542.69;;;17.80;28.24
70559;BME280;58108;48.094;11.838;2024-02-21T12:56:00;95541.59;;;17.23;28.27
70559;BME280;58108;48.094;11.838;2024-02-21T12:58:26;95528.09;;;18.59;27.88